Portada
METAR-TAF:

METAR-TAF

Aeroports :

Alofi, Niue

latitud: 19-04S, longitud: 169-55W, altitud: 20 m

Observació

L'informe es va fer fa 1 hora i 12 minuts, a les 16:00 UTC
Vent 9 kt del Est
Temperatura 24°C
Humitat 89%
Pressió 1013 hPa

METAR: NIUE 261600Z AUTO 10009KT //// // ///////// 24/22 Q1013

Hora: 06:12 (17:12 UTC)

Pronòstic

L'informe es va fer fa 11 hores i 45 minuts, a les 05:27 UTC
Pronòstic vàlid del 26 a les 06 UTC al 27 a les 06 UTC
Vent 8 kt del Sud-Est
Visibilitat 10 km o més
Núvols disperses a una alçada de 2000 ft
Núvols disperses a una alçada de 5000 ft
Probabilitat 40% :
Temporalment
l' 26 a les 18 UTC al 27 a les 06 UTC
Vent 15 kt del Est amb ràfegues de 25 kt

TAF: NIUE 260527Z 2606/2706 13008KT 9999 SCT020 SCT050 PROB40 TEMPO 2618/2706 10015G25KT

Observacions i pronòstics meteorològics de més de 4000 aeroports (METAR i TAF).

Les estacions disponibles són els punts grocs i vermells al mapa.

Posi el ratolí al punt desitjat per veure el nom de l'estació.

Feu clic per veure les observacions i els pronòstics meteorològics.

Per canviar el mapa: feu clic els botons verds amb una creu de color negre per apropar; al botó verd amb un guió per allunyar la imatge; o en les fletxes verdes per a mapes adjacents.


METAR-TAF: